sensor_id;sensor_type;location;lat;lon;timestamp;temperature;humidity
20438;DHT22;17436;50.338;8.810;2022-10-31T00:01:47;14.10;84.00
20438;DHT22;17436;50.338;8.810;2022-10-31T00:04:14;14.10;84.10
20438;DHT22;17436;50.338;8.810;2022-10-31T00:06:43;14.10;81.20
20438;DHT22;17436;50.338;8.810;2022-10-31T00:09:10;14.10;78.20
20438;DHT22;17436;50.338;8.810;2022-10-31T00:11:37;14.00;78.00
20438;DHT22;17436;50.338;8.810;2022-10-31T00:14:04;13.90;73.80
20438;DHT22;17436;50.338;8.810;2022-10-31T00:16:32;13.80;72.30
20438;DHT22;17436;50.338;8.810;2022-10-31T00:19:02;13.80;73.70
20438;DHT22;17436;50.338;8.810;2022-10-31T00:21:30;13.80;72.20
20438;DHT22;17436;50.338;8.810;2022-10-31T00:23:57;13.70;73.60
20438;DHT22;17436;50.338;8.810;2022-10-31T00:26:24;13.80;72.40
20438;DHT22;17436;50.338;8.810;2022-10-31T00:28:51;13.80;69.40
20438;DHT22;17436;50.338;8.810;2022-10-31T00:31:18;13.70;69.50
20438;DHT22;17436;50.338;8.810;2022-10-31T00:33:46;13.80;69.20
20438;DHT22;17436;50.338;8.810;2022-10-31T00:36:15;13.60;64.20
20438;DHT22;17436;50.338;8.810;2022-10-31T00:38:43;13.50;65.20
20438;DHT22;17436;50.338;8.810;2022-10-31T00:41:09;13.50;66.90
20438;DHT22;17436;50.338;8.810;2022-10-31T00:43:36;13.50;66.30
20438;DHT22;17436;50.338;8.810;2022-10-31T00:46:03;13.50;65.40
20438;DHT22;17436;50.338;8.810;2022-10-31T00:48:30;13.40;65.90
20438;DHT22;17436;50.338;8.810;2022-10-31T00:50:58;13.40;65.00
20438;DHT22;17436;50.338;8.810;2022-10-31T00:53:25;13.40;65.60
20438;DHT22;17436;50.338;8.810;2022-10-31T00:55:52;13.30;65.30
20438;DHT22;17436;50.338;8.810;2022-10-31T00:58:18;13.30;65.80
20438;DHT22;17436;50.338;8.810;2022-10-31T01:00:47;13.20;65.40
20438;DHT22;17436;50.338;8.810;2022-10-31T01:03:20;13.30;66.50
20438;DHT22;17436;50.338;8.810;2022-10-31T01:05:55;13.30;66.00
20438;DHT22;17436;50.338;8.810;2022-10-31T01:08:24;13.30;65.70
20438;DHT22;17436;50.338;8.810;2022-10-31T01:11:02;13.40;64.40
20438;DHT22;17436;50.338;8.810;2022-10-31T01:13:29;13.30;66.00
20438;DHT22;17436;50.338;8.810;2022-10-31T01:15:58;13.30;69.10
20438;DHT22;17436;50.338;8.810;2022-10-31T01:18:27;13.30;70.70
20438;DHT22;17436;50.338;8.810;2022-10-31T01:21:02;13.30;71.30
20438;DHT22;17436;50.338;8.810;2022-10-31T01:23:34;13.30;70.80
20438;DHT22;17436;50.338;8.810;2022-10-31T01:26:08;13.30;70.10
20438;DHT22;17436;50.338;8.810;2022-10-31T01:28:39;13.30;67.90
20438;DHT22;17436;50.338;8.810;2022-10-31T01:31:11;13.30;66.40
20438;DHT22;17436;50.338;8.810;2022-10-31T01:33:40;13.20;65.90
20438;DHT22;17436;50.338;8.810;2022-10-31T01:36:17;13.30;66.30
20438;DHT22;17436;50.338;8.810;2022-10-31T01:38:51;13.20;66.30
20438;DHT22;17436;50.338;8.810;2022-10-31T01:41:21;13.20;67.70
20438;DHT22;17436;50.338;8.810;2022-10-31T01:43:53;13.10;68.30
20438;DHT22;17436;50.338;8.810;2022-10-31T01:46:25;13.20;72.10
20438;DHT22;17436;50.338;8.810;2022-10-31T01:48:56;13.20;73.10
20438;DHT22;17436;50.338;8.810;2022-10-31T01:51:31;13.20;73.20
20438;DHT22;17436;50.338;8.810;2022-10-31T01:54:04;13.20;73.20
20438;DHT22;17436;50.338;8.810;2022-10-31T01:56:34;13.20;71.90
20438;DHT22;17436;50.338;8.810;2022-10-31T01:59:05;13.20;73.10
20438;DHT22;17436;50.338;8.810;2022-10-31T02:01:33;13.20;73.10
20438;DHT22;17436;50.338;8.810;2022-10-31T02:04:02;13.20;74.00
20438;DHT22;17436;50.338;8.810;2022-10-31T02:06:36;13.10;75.50
20438;DHT22;17436;50.338;8.810;2022-10-31T02:09:06;13.20;75.60
20438;DHT22;17436;50.338;8.810;2022-10-31T02:11:34;13.20;73.20
20438;DHT22;17436;50.338;8.810;2022-10-31T02:14:03;13.20;73.20
20438;DHT22;17436;50.338;8.810;2022-10-31T02:16:29;13.10;72.50
20438;DHT22;17436;50.338;8.810;2022-10-31T02:18:57;13.10;72.50
20438;DHT22;17436;50.338;8.810;2022-10-31T02:21:29;12.90;70.00
20438;DHT22;17436;50.338;8.810;2022-10-31T02:24:26;12.60;72.60
20438;DHT22;17436;50.338;8.810;2022-10-31T02:27:07;12.70;72.70
20438;DHT22;17436;50.338;8.810;2022-10-31T02:30:05;12.90;73.40
20438;DHT22;17436;50.338;8.810;2022-10-31T02:35:32;13.00;73.00
20438;DHT22;17436;50.338;8.810;2022-10-31T02:38:04;13.00;71.00
20438;DHT22;17436;50.338;8.810;2022-10-31T02:40:35;13.00;70.90
20438;DHT22;17436;50.338;8.810;2022-10-31T02:43:10;13.00;70.30
20438;DHT22;17436;50.338;8.810;2022-10-31T02:45:44;12.90;71.30
20438;DHT22;17436;50.338;8.810;2022-10-31T02:48:15;13.00;70.40
20438;DHT22;17436;50.338;8.810;2022-10-31T02:50:50;13.00;70.80
20438;DHT22;17436;50.338;8.810;2022-10-31T02:53:19;13.00;71.20
20438;DHT22;17436;50.338;8.810;2022-10-31T02:55:57;13.00;73.90
20438;DHT22;17436;50.338;8.810;2022-10-31T02:58:27;13.10;75.40
20438;DHT22;17436;50.338;8.810;2022-10-31T03:01:17;13.10;76.90
20438;DHT22;17436;50.338;8.810;2022-10-31T03:04:03;13.00;77.20
20438;DHT22;17436;50.338;8.810;2022-10-31T03:06:34;13.00;80.70
20438;DHT22;17436;50.338;8.810;2022-10-31T03:09:10;13.00;80.30
20438;DHT22;17436;50.338;8.810;2022-10-31T03:11:43;13.00;84.10
20438;DHT22;17436;50.338;8.810;2022-10-31T03:14:18;13.00;83.30
20438;DHT22;17436;50.338;8.810;2022-10-31T03:16:50;13.00;81.20
20438;DHT22;17436;50.338;8.810;2022-10-31T03:19:25;13.00;80.30
20438;DHT22;17436;50.338;8.810;2022-10-31T03:21:57;13.00;79.90
20438;DHT22;17436;50.338;8.810;2022-10-31T03:24:30;13.10;82.10
20438;DHT22;17436;50.338;8.810;2022-10-31T03:26:59;13.10;83.20
20438;DHT22;17436;50.338;8.810;2022-10-31T03:29:30;13.10;85.00
20438;DHT22;17436;50.338;8.810;2022-10-31T03:32:00;13.20;86.50
20438;DHT22;17436;50.338;8.810;2022-10-31T03:34:30;13.20;86.90
20438;DHT22;17436;50.338;8.810;2022-10-31T03:37:02;13.20;86.90
20438;DHT22;17436;50.338;8.810;2022-10-31T03:39:30;13.10;88.10
20438;DHT22;17436;50.338;8.810;2022-10-31T03:42:02;13.00;88.00
20438;DHT22;17436;50.338;8.810;2022-10-31T03:44:32;13.10;88.90
20438;DHT22;17436;50.338;8.810;2022-10-31T03:46:59;13.20;89.70
20438;DHT22;17436;50.338;8.810;2022-10-31T03:49:28;13.10;89.70
20438;DHT22;17436;50.338;8.810;2022-10-31T03:52:00;13.20;90.00
20438;DHT22;17436;50.338;8.810;2022-10-31T03:54:34;13.10;89.40
20438;DHT22;17436;50.338;8.810;2022-10-31T03:57:07;13.20;87.00
20438;DHT22;17436;50.338;8.810;2022-10-31T03:59:39;13.20;85.30
20438;DHT22;17436;50.338;8.810;2022-10-31T04:02:11;13.10;83.10
20438;DHT22;17436;50.338;8.810;2022-10-31T04:04:42;13.00;83.20
20438;DHT22;17436;50.338;8.810;2022-10-31T04:07:10;13.00;83.30
20438;DHT22;17436;50.338;8.810;2022-10-31T04:09:40;13.00;81.10
20438;DHT22;17436;50.338;8.810;2022-10-31T04:12:09;13.00;80.90
20438;DHT22;17436;50.338;8.810;2022-10-31T04:14:47;13.00;81.40
20438;DHT22;17436;50.338;8.810;2022-10-31T04:17:18;13.00;81.00
20438;DHT22;17436;50.338;8.810;2022-10-31T04:19:47;13.00;80.90
20438;DHT22;17436;50.338;8.810;2022-10-31T04:22:14;13.00;81.00
20438;DHT22;17436;50.338;8.810;2022-10-31T04:24:41;13.00;80.60
20438;DHT22;17436;50.338;8.810;2022-10-31T04:27:07;12.90;81.70
20438;DHT22;17436;50.338;8.810;2022-10-31T04:29:34;13.00;81.10
20438;DHT22;17436;50.338;8.810;2022-10-31T04:32:01;13.00;81.50
20438;DHT22;17436;50.338;8.810;2022-10-31T04:34:28;13.10;83.50
20438;DHT22;17436;50.338;8.810;2022-10-31T04:36:57;13.10;82.60
20438;DHT22;17436;50.338;8.810;2022-10-31T04:39:27;12.90;87.90
20438;DHT22;17436;50.338;8.810;2022-10-31T04:41:54;13.00;86.00
20438;DHT22;17436;50.338;8.810;2022-10-31T04:44:21;13.00;83.00
20438;DHT22;17436;50.338;8.810;2022-10-31T04:46:47;12.90;81.50
20438;DHT22;17436;50.338;8.810;2022-10-31T04:49:14;12.90;79.50
20438;DHT22;17436;50.338;8.810;2022-10-31T04:51:41;12.80;77.20
20438;DHT22;17436;50.338;8.810;2022-10-31T04:54:09;12.70;76.90
20438;DHT22;17436;50.338;8.810;2022-10-31T04:56:35;12.50;76.20
20438;DHT22;17436;50.338;8.810;2022-10-31T04:59:02;12.40;80.00
20438;DHT22;17436;50.338;8.810;2022-10-31T05:01:29;12.20;84.80
20438;DHT22;17436;50.338;8.810;2022-10-31T05:03:57;12.40;81.80
20438;DHT22;17436;50.338;8.810;2022-10-31T05:06:25;12.50;82.00
20438;DHT22;17436;50.338;8.810;2022-10-31T05:08:51;12.50;78.30
20438;DHT22;17436;50.338;8.810;2022-10-31T05:11:20;12.60;76.80
20438;DHT22;17436;50.338;8.810;2022-10-31T05:13:46;12.50;75.20
20438;DHT22;17436;50.338;8.810;2022-10-31T05:16:13;12.50;75.90
20438;DHT22;17436;50.338;8.810;2022-10-31T05:18:40;12.50;76.50
20438;DHT22;17436;50.338;8.810;2022-10-31T05:21:07;12.50;75.20
20438;DHT22;17436;50.338;8.810;2022-10-31T05:23:33;12.50;73.90
20438;DHT22;17436;50.338;8.810;2022-10-31T05:26:00;12.50;74.40
20438;DHT22;17436;50.338;8.810;2022-10-31T05:28:28;12.50;74.00
20438;DHT22;17436;50.338;8.810;2022-10-31T05:30:56;12.50;74.20
20438;DHT22;17436;50.338;8.810;2022-10-31T05:33:26;12.50;73.60
20438;DHT22;17436;50.338;8.810;2022-10-31T05:35:52;12.50;72.50
20438;DHT22;17436;50.338;8.810;2022-10-31T05:38:19;12.50;72.50
20438;DHT22;17436;50.338;8.810;2022-10-31T05:40:46;12.50;72.50
20438;DHT22;17436;50.338;8.810;2022-10-31T05:43:12;12.50;73.40
20438;DHT22;17436;50.338;8.810;2022-10-31T05:45:41;12.40;73.10
20438;DHT22;17436;50.338;8.810;2022-10-31T05:48:08;12.40;74.60
20438;DHT22;17436;50.338;8.810;2022-10-31T05:50:35;12.40;75.30
20438;DHT22;17436;50.338;8.810;2022-10-31T05:53:04;12.40;75.60
20438;DHT22;17436;50.338;8.810;2022-10-31T05:55:37;12.40;78.00
20438;DHT22;17436;50.338;8.810;2022-10-31T05:58:07;12.40;75.50
20438;DHT22;17436;50.338;8.810;2022-10-31T06:00:33;12.30;75.90
20438;DHT22;17436;50.338;8.810;2022-10-31T06:03:03;12.30;75.70
20438;DHT22;17436;50.338;8.810;2022-10-31T06:05:31;12.20;75.30
20438;DHT22;17436;50.338;8.810;2022-10-31T06:07:58;12.20;75.10
20438;DHT22;17436;50.338;8.810;2022-10-31T06:10:25;12.20;75.40
20438;DHT22;17436;50.338;8.810;2022-10-31T06:12:54;12.30;74.40
20438;DHT22;17436;50.338;8.810;2022-10-31T06:15:21;12.20;75.60
20438;DHT22;17436;50.338;8.810;2022-10-31T06:17:57;12.10;77.20
20438;DHT22;17436;50.338;8.810;2022-10-31T06:20:25;12.10;78.30
20438;DHT22;17436;50.338;8.810;2022-10-31T06:22:52;12.10;77.50
20438;DHT22;17436;50.338;8.810;2022-10-31T06:25:19;12.10;76.70
20438;DHT22;17436;50.338;8.810;2022-10-31T06:27:45;12.10;75.90
20438;DHT22;17436;50.338;8.810;2022-10-31T06:30:12;12.20;75.70
20438;DHT22;17436;50.338;8.810;2022-10-31T06:32:39;12.20;75.30
20438;DHT22;17436;50.338;8.810;2022-10-31T06:35:06;12.20;77.20
20438;DHT22;17436;50.338;8.810;2022-10-31T06:37:34;12.30;78.90
20438;DHT22;17436;50.338;8.810;2022-10-31T06:40:01;12.30;82.00
20438;DHT22;17436;50.338;8.810;2022-10-31T06:42:28;12.30;86.10
20438;DHT22;17436;50.338;8.810;2022-10-31T06:44:55;12.30;88.00
20438;DHT22;17436;50.338;8.810;2022-10-31T06:47:21;12.30;91.30
20438;DHT22;17436;50.338;8.810;2022-10-31T06:49:48;12.30;91.90
20438;DHT22;17436;50.338;8.810;2022-10-31T06:52:15;12.40;91.60
20438;DHT22;17436;50.338;8.810;2022-10-31T06:54:43;12.40;91.30
20438;DHT22;17436;50.338;8.810;2022-10-31T06:57:10;12.50;91.30
20438;DHT22;17436;50.338;8.810;2022-10-31T06:59:37;12.60;91.40
20438;DHT22;17436;50.338;8.810;2022-10-31T07:02:03;12.70;91.40
20438;DHT22;17436;50.338;8.810;2022-10-31T07:04:30;12.70;90.00
20438;DHT22;17436;50.338;8.810;2022-10-31T07:06:58;12.70;89.50
20438;DHT22;17436;50.338;8.810;2022-10-31T07:09:28;12.80;90.30
20438;DHT22;17436;50.338;8.810;2022-10-31T07:11:56;12.60;90.90
20438;DHT22;17436;50.338;8.810;2022-10-31T07:14:23;12.60;91.40
20438;DHT22;17436;50.338;8.810;2022-10-31T07:16:50;12.70;91.10
20438;DHT22;17436;50.338;8.810;2022-10-31T07:19:17;12.80;91.30
20438;DHT22;17436;50.338;8.810;2022-10-31T07:21:45;12.80;90.80
20438;DHT22;17436;50.338;8.810;2022-10-31T07:24:12;12.80;90.50
20438;DHT22;17436;50.338;8.810;2022-10-31T07:26:38;12.90;90.70
20438;DHT22;17436;50.338;8.810;2022-10-31T07:29:06;12.90;90.20
20438;DHT22;17436;50.338;8.810;2022-10-31T07:31:33;12.90;90.20
20438;DHT22;17436;50.338;8.810;2022-10-31T07:34:03;13.00;90.10
20438;DHT22;17436;50.338;8.810;2022-10-31T07:36:31;12.90;91.00
20438;DHT22;17436;50.338;8.810;2022-10-31T07:38:58;12.90;90.50
20438;DHT22;17436;50.338;8.810;2022-10-31T07:41:25;12.90;91.00
20438;DHT22;17436;50.338;8.810;2022-10-31T07:43:52;12.80;91.40
20438;DHT22;17436;50.338;8.810;2022-10-31T07:46:21;12.90;92.10
20438;DHT22;17436;50.338;8.810;2022-10-31T07:48:48;13.00;91.50
20438;DHT22;17436;50.338;8.810;2022-10-31T07:51:15;13.20;91.60
20438;DHT22;17436;50.338;8.810;2022-10-31T07:53:42;13.30;90.90
20438;DHT22;17436;50.338;8.810;2022-10-31T07:56:08;13.30;90.70
20438;DHT22;17436;50.338;8.810;2022-10-31T07:58:35;13.20;91.10
20438;DHT22;17436;50.338;8.810;2022-10-31T08:01:02;13.30;91.60
20438;DHT22;17436;50.338;8.810;2022-10-31T08:03:30;13.40;91.30
20438;DHT22;17436;50.338;8.810;2022-10-31T08:05:57;13.40;90.70
20438;DHT22;17436;50.338;8.810;2022-10-31T08:08:23;13.30;90.00
20438;DHT22;17436;50.338;8.810;2022-10-31T08:10:53;13.30;92.00
20438;DHT22;17436;50.338;8.810;2022-10-31T08:13:20;13.60;91.70
20438;DHT22;17436;50.338;8.810;2022-10-31T08:15:47;13.70;91.10
20438;DHT22;17436;50.338;8.810;2022-10-31T08:18:16;13.70;90.70
20438;DHT22;17436;50.338;8.810;2022-10-31T08:20:44;13.80;91.80
20438;DHT22;17436;50.338;8.810;2022-10-31T08:23:12;13.90;91.80
20438;DHT22;17436;50.338;8.810;2022-10-31T08:25:39;14.00;91.90
20438;DHT22;17436;50.338;8.810;2022-10-31T08:28:09;14.10;92.50
20438;DHT22;17436;50.338;8.810;2022-10-31T08:30:37;14.20;92.40
20438;DHT22;17436;50.338;8.810;2022-10-31T08:33:06;14.10;92.00
20438;DHT22;17436;50.338;8.810;2022-10-31T08:35:33;14.10;93.00
20438;DHT22;17436;50.338;8.810;2022-10-31T08:38:01;14.10;92.90
20438;DHT22;17436;50.338;8.810;2022-10-31T08:40:31;14.10;93.60
20438;DHT22;17436;50.338;8.810;2022-10-31T08:43:01;14.20;93.50
20438;DHT22;17436;50.338;8.810;2022-10-31T08:45:32;14.20;93.50
20438;DHT22;17436;50.338;8.810;2022-10-31T08:48:00;14.10;94.10
20438;DHT22;17436;50.338;8.810;2022-10-31T08:50:27;14.10;95.70
20438;DHT22;17436;50.338;8.810;2022-10-31T08:52:53;14.10;95.30
20438;DHT22;17436;50.338;8.810;2022-10-31T08:55:27;14.10;95.50
20438;DHT22;17436;50.338;8.810;2022-10-31T08:57:55;14.20;95.30
20438;DHT22;17436;50.338;8.810;2022-10-31T09:00:23;14.30;95.70
20438;DHT22;17436;50.338;8.810;2022-10-31T09:02:55;14.50;96.30
20438;DHT22;17436;50.338;8.810;2022-10-31T09:05:22;14.50;96.10
20438;DHT22;17436;50.338;8.810;2022-10-31T09:07:49;14.50;96.00
20438;DHT22;17436;50.338;8.810;2022-10-31T09:10:16;14.70;95.90
20438;DHT22;17436;50.338;8.810;2022-10-31T09:12:44;14.60;95.30
20438;DHT22;17436;50.338;8.810;2022-10-31T09:15:11;14.60;94.90
20438;DHT22;17436;50.338;8.810;2022-10-31T09:17:38;14.70;95.10
20438;DHT22;17436;50.338;8.810;2022-10-31T09:20:05;14.90;94.40
20438;DHT22;17436;50.338;8.810;2022-10-31T09:22:32;15.20;95.10
20438;DHT22;17436;50.338;8.810;2022-10-31T09:24:59;15.40;93.50
20438;DHT22;17436;50.338;8.810;2022-10-31T09:27:27;15.60;93.40
20438;DHT22;17436;50.338;8.810;2022-10-31T09:29:55;15.70;92.50
20438;DHT22;17436;50.338;8.810;2022-10-31T09:32:21;15.80;90.10
20438;DHT22;17436;50.338;8.810;2022-10-31T09:34:48;16.30;90.30
20438;DHT22;17436;50.338;8.810;2022-10-31T09:37:15;16.30;88.60
20438;DHT22;17436;50.338;8.810;2022-10-31T09:39:42;16.30;84.20
20438;DHT22;17436;50.338;8.810;2022-10-31T09:42:36;16.60;80.70
20438;DHT22;17436;50.338;8.810;2022-10-31T09:45:11;16.70;79.70
20438;DHT22;17436;50.338;8.810;2022-10-31T09:47:51;17.00;76.50
20438;DHT22;17436;50.338;8.810;2022-10-31T09:50:22;17.30;72.30
20438;DHT22;17436;50.338;8.810;2022-10-31T09:52:57;16.70;72.00
20438;DHT22;17436;50.338;8.810;2022-10-31T09:55:31;16.60;76.30
20438;DHT22;17436;50.338;8.810;2022-10-31T09:58:03;16.50;76.50
20438;DHT22;17436;50.338;8.810;2022-10-31T10:00:31;16.50;78.40
20438;DHT22;17436;50.338;8.810;2022-10-31T10:03:02;16.40;77.70
20438;DHT22;17436;50.338;8.810;2022-10-31T10:05:34;17.40;74.80
20438;DHT22;17436;50.338;8.810;2022-10-31T10:08:09;17.70;70.60
20438;DHT22;17436;50.338;8.810;2022-10-31T10:10:45;18.00;61.30
20438;DHT22;17436;50.338;8.810;2022-10-31T10:13:30;18.00;59.40
20438;DHT22;17436;50.338;8.810;2022-10-31T10:16:14;18.10;60.80
20438;DHT22;17436;50.338;8.810;2022-10-31T10:18:53;18.50;59.00
20438;DHT22;17436;50.338;8.810;2022-10-31T10:21:31;19.20;55.10
20438;DHT22;17436;50.338;8.810;2022-10-31T10:24:09;19.70;48.30
20438;DHT22;17436;50.338;8.810;2022-10-31T10:26:43;19.50;46.00
20438;DHT22;17436;50.338;8.810;2022-10-31T10:29:23;18.70;53.50
20438;DHT22;17436;50.338;8.810;2022-10-31T10:31:53;18.60;58.00
20438;DHT22;17436;50.338;8.810;2022-10-31T10:34:24;18.00;62.10
20438;DHT22;17436;50.338;8.810;2022-10-31T10:36:58;17.50;70.90
20438;DHT22;17436;50.338;8.810;2022-10-31T10:39:30;17.60;78.70
20438;DHT22;17436;50.338;8.810;2022-10-31T10:41:59;18.10;72.50
20438;DHT22;17436;50.338;8.810;2022-10-31T10:44:47;18.10;69.50
20438;DHT22;17436;50.338;8.810;2022-10-31T10:47:40;17.70;73.00
20438;DHT22;17436;50.338;8.810;2022-10-31T10:50:12;17.50;78.60
20438;DHT22;17436;50.338;8.810;2022-10-31T10:52:47;17.30;83.00
20438;DHT22;17436;50.338;8.810;2022-10-31T10:55:22;17.20;87.50
20438;DHT22;17436;50.338;8.810;2022-10-31T10:57:56;17.10;91.00
20438;DHT22;17436;50.338;8.810;2022-10-31T11:00:26;17.30;91.80
20438;DHT22;17436;50.338;8.810;2022-10-31T11:02:55;17.40;91.40
20438;DHT22;17436;50.338;8.810;2022-10-31T11:05:26;17.40;90.40
20438;DHT22;17436;50.338;8.810;2022-10-31T11:07:54;17.40;90.30
20438;DHT22;17436;50.338;8.810;2022-10-31T11:10:21;17.30;91.70
20438;DHT22;17436;50.338;8.810;2022-10-31T11:13:01;17.30;93.00
20438;DHT22;17436;50.338;8.810;2022-10-31T11:15:31;17.40;92.80
20438;DHT22;17436;50.338;8.810;2022-10-31T11:17:59;17.40;92.40
20438;DHT22;17436;50.338;8.810;2022-10-31T11:20:30;17.40;92.20
20438;DHT22;17436;50.338;8.810;2022-10-31T11:23:03;17.40;91.60
20438;DHT22;17436;50.338;8.810;2022-10-31T11:25:29;17.50;91.10
20438;DHT22;17436;50.338;8.810;2022-10-31T11:28:00;17.50;90.30
20438;DHT22;17436;50.338;8.810;2022-10-31T11:30:28;17.50;90.20
20438;DHT22;17436;50.338;8.810;2022-10-31T11:32:55;17.40;90.90
20438;DHT22;17436;50.338;8.810;2022-10-31T11:35:24;17.40;90.50
20438;DHT22;17436;50.338;8.810;2022-10-31T11:37:53;17.40;89.10
20438;DHT22;17436;50.338;8.810;2022-10-31T11:40:22;17.40;87.70
20438;DHT22;17436;50.338;8.810;2022-10-31T11:42:50;17.50;88.50
20438;DHT22;17436;50.338;8.810;2022-10-31T11:45:30;17.50;87.70
20438;DHT22;17436;50.338;8.810;2022-10-31T11:47:58;17.50;87.60
20438;DHT22;17436;50.338;8.810;2022-10-31T11:50:35;17.50;86.80
20438;DHT22;17436;50.338;8.810;2022-10-31T11:53:09;17.50;88.90
20438;DHT22;17436;50.338;8.810;2022-10-31T11:55:38;17.60;88.10
20438;DHT22;17436;50.338;8.810;2022-10-31T11:58:20;17.50;86.90
20438;DHT22;17436;50.338;8.810;2022-10-31T12:00:50;17.50;84.70
20438;DHT22;17436;50.338;8.810;2022-10-31T12:03:33;17.60;81.10
20438;DHT22;17436;50.338;8.810;2022-10-31T12:06:07;17.60;77.20
20438;DHT22;17436;50.338;8.810;2022-10-31T12:08:36;17.60;77.90
20438;DHT22;17436;50.338;8.810;2022-10-31T12:11:11;17.60;80.00
20438;DHT22;17436;50.338;8.810;2022-10-31T12:13:49;17.60;79.80
20438;DHT22;17436;50.338;8.810;2022-10-31T12:16:22;17.70;82.30
20438;DHT22;17436;50.338;8.810;2022-10-31T12:19:03;17.70;81.20
20438;DHT22;17436;50.338;8.810;2022-10-31T12:21:44;17.70;84.40
20438;DHT22;17436;50.338;8.810;2022-10-31T12:24:28;17.70;86.10
20438;DHT22;17436;50.338;8.810;2022-10-31T12:27:06;17.70;83.90
20438;DHT22;17436;50.338;8.810;2022-10-31T12:29:50;17.70;83.60
20438;DHT22;17436;50.338;8.810;2022-10-31T12:32:29;17.70;86.40
20438;DHT22;17436;50.338;8.810;2022-10-31T12:38:28;17.70;84.60
20438;DHT22;17436;50.338;8.810;2022-10-31T12:41:07;17.70;82.40
20438;DHT22;17436;50.338;8.810;2022-10-31T12:43:41;17.70;81.50
20438;DHT22;17436;50.338;8.810;2022-10-31T12:46:18;17.70;82.10
20438;DHT22;17436;50.338;8.810;2022-10-31T12:49:17;17.80;78.60
20438;DHT22;17436;50.338;8.810;2022-10-31T12:51:55;17.80;85.30
20438;DHT22;17436;50.338;8.810;2022-10-31T12:54:39;17.80;86.30
20438;DHT22;17436;50.338;8.810;2022-10-31T12:57:20;17.90;83.90
20438;DHT22;17436;50.338;8.810;2022-10-31T12:59:52;17.80;83.20
20438;DHT22;17436;50.338;8.810;2022-10-31T13:02:24;17.90;84.70
20438;DHT22;17436;50.338;8.810;2022-10-31T13:04:55;17.80;81.60
20438;DHT22;17436;50.338;8.810;2022-10-31T13:07:28;17.80;81.00
20438;DHT22;17436;50.338;8.810;2022-10-31T13:10:03;17.90;79.90
20438;DHT22;17436;50.338;8.810;2022-10-31T13:12:31;17.90;79.70
20438;DHT22;17436;50.338;8.810;2022-10-31T13:15:01;17.90;79.10
20438;DHT22;17436;50.338;8.810;2022-10-31T13:17:35;18.00;76.10
20438;DHT22;17436;50.338;8.810;2022-10-31T13:20:22;18.10;75.00
20438;DHT22;17436;50.338;8.810;2022-10-31T13:22:53;18.00;75.50
20438;DHT22;17436;50.338;8.810;2022-10-31T13:25:25;18.00;76.20
20438;DHT22;17436;50.338;8.810;2022-10-31T13:27:58;18.00;77.40
20438;DHT22;17436;50.338;8.810;2022-10-31T13:30:28;18.00;77.40
20438;DHT22;17436;50.338;8.810;2022-10-31T13:32:59;18.00;77.40
20438;DHT22;17436;50.338;8.810;2022-10-31T13:35:33;18.00;77.50
20438;DHT22;17436;50.338;8.810;2022-10-31T13:38:09;18.00;80.10
20438;DHT22;17436;50.338;8.810;2022-10-31T13:40:45;18.00;77.50
20438;DHT22;17436;50.338;8.810;2022-10-31T13:43:29;18.00;77.40
20438;DHT22;17436;50.338;8.810;2022-10-31T13:46:00;18.00;77.40
20438;DHT22;17436;50.338;8.810;2022-10-31T13:48:40;18.00;80.90
20438;DHT22;17436;50.338;8.810;2022-10-31T13:51:09;17.90;84.50
20438;DHT22;17436;50.338;8.810;2022-10-31T13:53:58;17.90;85.70
20438;DHT22;17436;50.338;8.810;2022-10-31T13:56:27;17.90;87.20
20438;DHT22;17436;50.338;8.810;2022-10-31T13:59:17;17.90;87.20
20438;DHT22;17436;50.338;8.810;2022-10-31T14:01:48;17.90;90.20
20438;DHT22;17436;50.338;8.810;2022-10-31T14:04:17;18.00;88.10
20438;DHT22;17436;50.338;8.810;2022-10-31T14:06:57;18.00;90.50
20438;DHT22;17436;50.338;8.810;2022-10-31T14:09:31;17.90;90.70
20438;DHT22;17436;50.338;8.810;2022-10-31T14:12:03;17.90;91.20
20438;DHT22;17436;50.338;8.810;2022-10-31T14:14:34;17.90;91.70
20438;DHT22;17436;50.338;8.810;2022-10-31T14:17:02;17.90;90.90
20438;DHT22;17436;50.338;8.810;2022-10-31T14:19:28;17.90;90.70
20438;DHT22;17436;50.338;8.810;2022-10-31T14:21:56;17.80;90.40
20438;DHT22;17436;50.338;8.810;2022-10-31T14:24:33;17.90;90.70
20438;DHT22;17436;50.338;8.810;2022-10-31T14:27:04;17.90;92.10
20438;DHT22;17436;50.338;8.810;2022-10-31T14:29:33;17.90;91.70
20438;DHT22;17436;50.338;8.810;2022-10-31T14:32:05;17.80;93.20
20438;DHT22;17436;50.338;8.810;2022-10-31T14:34:38;17.80;93.20
20438;DHT22;17436;50.338;8.810;2022-10-31T14:37:27;17.80;94.10
20438;DHT22;17436;50.338;8.810;2022-10-31T14:43:07;17.70;94.50
20438;DHT22;17436;50.338;8.810;2022-10-31T14:45:44;17.70;95.10
20438;DHT22;17436;50.338;8.810;2022-10-31T14:48:31;17.70;95.00
20438;DHT22;17436;50.338;8.810;2022-10-31T14:51:02;17.60;96.20
20438;DHT22;17436;50.338;8.810;2022-10-31T14:53:32;17.60;96.60
20438;DHT22;17436;50.338;8.810;2022-10-31T14:56:00;17.60;96.40
20438;DHT22;17436;50.338;8.810;2022-10-31T14:58:34;17.60;97.40
20438;DHT22;17436;50.338;8.810;2022-10-31T15:01:02;17.60;97.70
20438;DHT22;17436;50.338;8.810;2022-10-31T15:03:31;17.60;96.90
20438;DHT22;17436;50.338;8.810;2022-10-31T15:06:01;17.60;96.70
20438;DHT22;17436;50.338;8.810;2022-10-31T15:08:33;17.60;97.00
20438;DHT22;17436;50.338;8.810;2022-10-31T15:11:09;17.50;96.20
20438;DHT22;17436;50.338;8.810;2022-10-31T15:13:43;17.60;95.90
20438;DHT22;17436;50.338;8.810;2022-10-31T15:16:12;17.60;93.20
20438;DHT22;17436;50.338;8.810;2022-10-31T15:18:46;17.70;92.30
20438;DHT22;17436;50.338;8.810;2022-10-31T15:21:15;17.70;91.80
20438;DHT22;17436;50.338;8.810;2022-10-31T15:23:42;17.70;92.10
20438;DHT22;17436;50.338;8.810;2022-10-31T15:26:15;17.80;93.00
20438;DHT22;17436;50.338;8.810;2022-10-31T15:28:43;17.70;94.20
20438;DHT22;17436;50.338;8.810;2022-10-31T15:31:15;17.60;95.10
20438;DHT22;17436;50.338;8.810;2022-10-31T15:33:46;17.60;95.00
20438;DHT22;17436;50.338;8.810;2022-10-31T15:36:19;17.60;94.80
20438;DHT22;17436;50.338;8.810;2022-10-31T15:38:46;17.60;95.20
20438;DHT22;17436;50.338;8.810;2022-10-31T15:41:23;17.60;95.10
20438;DHT22;17436;50.338;8.810;2022-10-31T15:43:51;17.50;95.90
20438;DHT22;17436;50.338;8.810;2022-10-31T15:46:18;17.40;96.60
20438;DHT22;17436;50.338;8.810;2022-10-31T15:48:46;17.30;96.50
20438;DHT22;17436;50.338;8.810;2022-10-31T15:51:13;17.10;96.60
20438;DHT22;17436;50.338;8.810;2022-10-31T15:53:43;17.10;96.20
20438;DHT22;17436;50.338;8.810;2022-10-31T15:56:13;17.00;96.10
20438;DHT22;17436;50.338;8.810;2022-10-31T15:58:47;17.00;97.10
20438;DHT22;17436;50.338;8.810;2022-10-31T16:01:23;17.00;97.30
20438;DHT22;17436;50.338;8.810;2022-10-31T16:04:00;16.90;97.30